Time;durP1;ratioP1;P1;durP2;ratioP2;P2;SDS_P1;SDS_P2;PMS_P1;PMS_P2;Temp;Humidity;BMP_temperature;BMP_pressure;BME280_temperature;BME280_humidity;BME280_pressure;Samples;Min_cycle;Max_cycle;Signal;HPM_P1;HPM_P2
2022/10/21 00:01:37;;;;;;;4.53;3.30;;;14.90;98.00;;;;;;5038405;28;20037;-72
2022/10/21 00:04:12;;;;;;;1.65;1.50;;;14.90;98.00;;;;;;5038233;28;20429;-72
2022/10/21 00:06:47;;;;;;;4.38;2.67;;;14.90;98.00;;;;;;5038118;28;20025;-72
2022/10/21 00:09:21;;;;;;;2.53;2.33;;;14.90;98.00;;;;;;5038047;28;20126;-72
2022/10/21 00:11:56;;;;;;;2.67;2.42;;;14.90;98.00;;;;;;5037862;28;20033;-72
2022/10/21 00:17:44;;;;;;;2.97;1.88;;;15.10;98.00;;;;;;5038377;28;20029;-72
2022/10/21 00:20:19;;;;;;;2.22;1.90;;;15.10;98.00;;;;;;5037992;28;20306;-72
2022/10/21 00:22:54;;;;;;;2.45;2.17;;;15.10;98.00;;;;;;5036650;28;20594;-72
2022/10/21 00:25:29;;;;;;;3.03;1.90;;;15.20;98.00;;;;;;5037791;28;20394;-72
2022/10/21 00:27:54;;;;;;;2.33;2.13;;;15.20;98.00;;;;;;5037919;28;20104;-72
2022/10/21 00:30:29;;;;;;;2.92;2.22;;;15.30;98.00;;;;;;5036754;28;20374;-72
2022/10/21 00:33:04;;;;;;;3.00;2.00;;;15.30;98.00;;;;;;5037612;28;20142;-72
2022/10/21 00:35:39;;;;;;;3.30;2.87;;;15.40;98.00;;;;;;5036729;28;20026;-72
2022/10/21 00:38:05;;;;;;;3.60;3.13;;;15.40;98.00;;;;;;5037691;28;20021;-72
2022/10/21 00:40:46;;;;;;;1.60;1.30;;;15.40;98.00;;;;;;5037536;28;20079;-72
2022/10/21 00:43:23;;;;;;;1.42;1.05;;;15.40;98.00;;;;;;5036476;28;20017;-72
2022/10/21 00:46:05;;;;;;;3.05;2.75;;;15.50;98.00;;;;;;5037241;28;20298;-72
2022/10/21 00:48:33;;;;;;;2.65;2.00;;;15.50;98.00;;;;;;5036987;28;20021;-72
2022/10/21 00:51:15;;;;;;;1.98;1.38;;;15.50;98.00;;;;;;5037324;28;20353;-72
2022/10/21 00:53:50;;;;;;;2.70;2.05;;;15.50;98.00;;;;;;5037426;28;20071;-72
2022/10/21 00:59:52;;;;;;;1.25;1.15;;;15.40;98.00;;;;;;5037264;28;20085;-72
2022/10/21 01:02:28;;;;;;;3.47;3.17;;;15.40;98.00;;;;;;5037039;28;20029;-72
2022/10/21 01:05:04;;;;;;;1.73;1.63;;;15.40;98.00;;;;;;5037138;28;20022;-72
2022/10/21 01:07:30;;;;;;;3.17;2.88;;;15.40;98.00;;;;;;5036871;28;20481;-72
2022/10/21 01:10:54;;;;;;;3.33;2.95;;;15.40;98.00;;;;;;5036493;28;20048;-72
2022/10/21 01:14:20;;;;;;;1.63;1.52;;;15.40;98.00;;;;;;5036960;28;20360;-72
2022/10/21 01:17:45;;;;;;;2.10;1.90;;;15.50;98.00;;;;;;5036747;28;20402;-72
2022/10/21 01:20:36;;;;;;;6.55;1.13;;;15.50;98.00;;;;;;5036748;28;20029;-72
2022/10/21 01:23:48;;;;;;;2.28;1.80;;;15.50;98.00;;;;;;5036753;28;20101;-72
2022/10/21 01:27:17;;;;;;;4.38;2.65;;;15.60;98.00;;;;;;5036705;28;20077;-72
2022/10/21 01:30:07;;;;;;;2.30;2.05;;;15.60;98.00;;;;;;4995265;28;20404;-72
2022/10/21 01:33:19;;;;;;;2.75;2.15;;;15.80;98.00;;;;;;5036862;28;20470;-72
2022/10/21 01:39:30;;;;;;;1.65;1.52;;;15.80;98.00;;;;;;5036851;28;20349;-72
2022/10/21 01:42:33;;;;;;;3.63;2.70;;;15.80;98.00;;;;;;5035216;28;20036;-72
2022/10/21 01:45:56;;;;;;;3.08;2.63;;;15.90;98.00;;;;;;5036337;28;20312;-72
2022/10/21 01:48:52;;;;;;;4.70;3.60;;;15.90;98.00;;;;;;5002488;28;20033;-72
2022/10/21 01:51:28;;;;;;;1.65;1.55;;;15.90;98.00;;;;;;5036464;28;20402;-72
2022/10/21 01:54:11;;;;;;;2.10;1.95;;;15.90;98.00;;;;;;5036209;28;20024;-72
2022/10/21 01:56:47;;;;;;;4.30;3.30;;;15.90;98.00;;;;;;5036166;28;20022;-72
2022/10/21 01:59:32;;;;;;;3.53;3.22;;;15.90;98.00;;;;;;5035056;28;20056;-72
2022/10/21 02:02:08;;;;;;;2.30;1.83;;;15.80;98.00;;;;;;5035274;28;20025;-72
2022/10/21 02:04:45;;;;;;;4.03;2.53;;;15.80;98.00;;;;;;5036106;28;20353;-72
2022/10/21 02:07:10;;;;;;;2.55;1.95;;;15.80;98.00;;;;;;5035804;28;20056;-72
2022/10/21 02:09:51;;;;;;;2.97;1.67;;;15.80;98.00;;;;;;5051650;28;20054;-72
2022/10/21 02:12:28;;;;;;;1.45;1.35;;;15.80;98.00;;;;;;5016124;28;20037;-72
2022/10/21 02:18:26;;;;;;;2.00;1.80;;;15.70;98.00;;;;;;5016365;28;20075;-72
2022/10/21 02:21:09;;;;;;;2.35;2.05;;;15.70;98.00;;;;;;5015859;28;20025;-72
2022/10/21 02:24:27;;;;;;;2.25;2.05;;;15.70;98.00;;;;;;5015909;28;20037;-72
2022/10/21 02:26:53;;;;;;;4.07;3.17;;;15.70;98.00;;;;;;4998488;28;20022;-72
2022/10/21 02:29:41;;;;;;;4.95;3.53;;;15.70;98.00;;;;;;5016022;28;20124;-72
2022/10/21 02:32:44;;;;;;;3.53;3.05;;;15.70;98.00;;;;;;5015785;28;20026;-72
2022/10/21 02:35:47;;;;;;;3.70;3.05;;;15.60;98.00;;;;;;5015857;28;20101;-72
2022/10/21 02:38:23;;;;;;;3.03;2.72;;;15.70;98.00;;;;;;5015738;28;20418;-72
2022/10/21 02:41:12;;;;;;;4.80;2.65;;;15.80;98.00;;;;;;5015842;28;20037;-72
2022/10/21 02:44:13;;;;;;;1.80;1.65;;;15.90;98.00;;;;;;5015831;28;20018;-72
2022/10/21 02:50:16;;;;;;;2.70;2.15;;;16.00;98.00;;;;;;5016088;28;20102;-72
2022/10/21 02:52:51;;;;;;;2.88;1.77;;;16.10;98.00;;;;;;5015544;28;20030;-72
2022/10/21 02:58:39;;;;;;;2.05;1.85;;;16.10;98.00;;;;;;5016032;28;20073;-72
2022/10/21 03:01:14;;;;;;;2.67;2.47;;;16.10;98.00;;;;;;5030952;28;20026;-72
2022/10/21 03:03:48;;;;;;;3.30;2.37;;;16.10;98.00;;;;;;5015693;28;20026;-72
2022/10/21 03:06:23;;;;;;;2.23;1.90;;;16.10;98.00;;;;;;5015434;28;20422;-72
2022/10/21 03:08:49;;;;;;;1.63;1.33;;;16.10;98.00;;;;;;5031021;28;20022;-72
2022/10/21 03:12:14;;;;;;;2.60;2.38;;;16.10;98.00;;;;;;5026277;28;20361;-72
2022/10/21 03:15:40;;;;;;;5.32;3.88;;;16.00;98.00;;;;;;5039171;28;20021;-72
2022/10/21 03:18:06;;;;;;;1.73;1.20;;;16.00;98.00;;;;;;5039134;28;20091;-72
2022/10/21 03:20:50;;;;;;;3.30;2.33;;;16.00;98.00;;;;;;5039140;28;20029;-72
2022/10/21 03:23:25;;;;;;;4.43;2.78;;;16.00;98.00;;;;;;5021340;28;20021;-72
2022/10/21 03:26:00;;;;;;;1.98;1.77;;;15.90;98.00;;;;;;5038772;28;20025;-72
2022/10/21 03:28:26;;;;;;;2.38;2.03;;;15.90;98.00;;;;;;5038949;28;20050;-72
2022/10/21 03:31:35;;;;;;;1.90;1.60;;;15.90;98.00;;;;;;5038907;28;20026;-72
2022/10/21 03:34:10;;;;;;;2.22;1.67;;;15.90;98.00;;;;;;5038721;28;20022;-72
2022/10/21 03:39:57;;;;;;;1.88;1.63;;;15.90;98.00;;;;;;5038636;28;20017;-72
2022/10/21 03:42:32;;;;;;;1.77;1.17;;;15.90;98.00;;;;;;5038605;28;20314;-72
2022/10/21 03:48:20;;;;;;;3.50;2.08;;;15.80;98.00;;;;;;5038932;28;20071;-72
2022/10/21 03:50:55;;;;;;;2.17;1.67;;;15.80;98.00;;;;;;5038508;28;20021;-72
2022/10/21 03:53:30;;;;;;;;;;;15.80;98.00;;;;;;5038937;28;20017;-72
2022/10/21 03:56:08;;;;;;;4.63;2.38;;;15.70;98.00;;;;;;5020782;28;20290;-72
2022/10/21 03:58:34;;;;;;;1.73;1.63;;;15.80;98.00;;;;;;5053867;28;20457;-72
2022/10/21 04:01:49;;;;;;;2.08;1.70;;;15.80;98.00;;;;;;5038342;28;20014;-72
2022/10/21 04:04:25;;;;;;;2.45;1.40;;;15.80;98.00;;;;;;5038184;28;20021;-72
2022/10/21 04:06:51;;;;;;;1.65;1.48;;;15.90;98.00;;;;;;5038221;28;20048;-72
2022/10/21 04:09:26;;;;;;;1.27;1.15;;;15.80;98.00;;;;;;5038402;28;20049;-72
2022/10/21 04:12:16;;;;;;;2.78;2.25;;;15.80;98.00;;;;;;5036375;28;20046;-72
2022/10/21 04:18:13;;;;;;;2.75;2.55;;;15.90;98.00;;;;;;5038180;28;20072;-72
2022/10/21 04:20:48;;;;;;;2.05;1.63;;;15.80;98.00;;;;;;5037839;28;20100;-72
2022/10/21 04:23:23;;;;;;;1.65;1.52;;;15.80;98.00;;;;;;5019622;28;20088;-72
2022/10/21 04:25:57;;;;;;;1.73;1.48;;;15.80;98.00;;;;;;5037839;28;20037;-72
2022/10/21 04:28:23;;;;;;;2.33;2.13;;;15.80;98.00;;;;;;5037761;28;20467;-72
2022/10/21 04:30:58;;;;;;;2.28;2.08;;;15.90;98.00;;;;;;5037775;28;20100;-72
2022/10/21 04:33:32;;;;;;;2.40;2.20;;;15.90;98.00;;;;;;5037793;28;20056;-72
2022/10/21 04:36:07;;;;;;;1.88;1.77;;;15.90;98.00;;;;;;5037589;28;20017;-72
2022/10/21 04:38:33;;;;;;;2.90;1.75;;;15.90;98.00;;;;;;5020046;28;20018;-72
2022/10/21 04:41:14;;;;;;;2.55;2.35;;;15.90;98.00;;;;;;5053040;28;20017;-72
2022/10/21 04:43:49;;;;;;;1.15;1.00;;;15.80;98.00;;;;;;5037493;28;20089;-72
2022/10/21 04:49:36;;;;;;;2.85;2.05;;;15.80;98.00;;;;;;5037421;28;20071;-72
2022/10/21 04:52:11;;;;;;;2.47;1.58;;;15.80;98.00;;;;;;5037330;28;20353;-72
2022/10/21 04:57:59;;;;;;;2.30;1.65;;;15.80;98.00;;;;;;5037306;28;20310;-72
2022/10/21 05:00:34;;;;;;;2.35;2.15;;;15.80;98.00;;;;;;5037160;28;20017;-72
2022/10/21 05:03:09;;;;;;;4.88;2.72;;;15.80;98.00;;;;;;5037123;28;20067;-72
2022/10/21 05:05:44;;;;;;;3.40;2.35;;;15.70;98.00;;;;;;5037434;28;20068;-72
2022/10/21 05:08:10;;;;;;;1.45;1.10;;;15.70;98.00;;;;;;5037050;28;20013;-72
2022/10/21 05:10:35;;;;;;;2.70;2.50;;;15.60;98.00;;;;;;5036784;28;20021;-72
2022/10/21 05:13:10;;;;;;;2.92;2.13;;;15.60;98.00;;;;;;5052527;28;20402;-72
2022/10/21 05:15:46;;;;;;;2.20;1.90;;;15.70;98.00;;;;;;5052532;28;20030;-72
2022/10/21 05:18:11;;;;;;;2.85;2.25;;;15.70;98.00;;;;;;5019419;28;20469;-72
2022/10/21 05:21:03;;;;;;;3.15;2.65;;;15.70;98.00;;;;;;5036947;28;20586;-72
2022/10/21 05:23:38;;;;;;;1.80;1.65;;;15.80;98.00;;;;;;5036882;28;20440;-72
2022/10/21 05:29:25;;;;;;;2.50;2.17;;;15.80;98.00;;;;;;5036814;28;20420;-72
2022/10/21 05:32:00;;;;;;;5.60;3.65;;;15.80;98.00;;;;;;5052148;28;20021;-72
2022/10/21 05:37:48;;;;;;;1.25;1.15;;;15.80;98.00;;;;;;5036747;28;20029;-72
2022/10/21 05:40:23;;;;;;;2.38;2.17;;;15.80;98.00;;;;;;5052337;28;20029;-72
2022/10/21 05:42:58;;;;;;;1.42;1.27;;;15.80;98.00;;;;;;5036522;28;20025;-72
2022/10/21 05:48:46;;;;;;;3.85;3.45;;;15.80;98.00;;;;;;5036476;28;20024;-72
2022/10/21 05:51:27;;;;;;;1.63;1.52;;;15.70;98.00;;;;;;5051972;28;20034;-72
2022/10/21 05:54:04;;;;;;;1.88;1.77;;;15.70;98.00;;;;;;5018659;28;20045;-72
2022/10/21 05:56:40;;;;;;;2.05;1.83;;;15.70;98.00;;;;;;5036099;28;20021;-72
2022/10/21 05:59:15;;;;;;;2.92;2.33;;;15.80;98.00;;;;;;5018734;28;20048;-72
2022/10/21 06:01:50;;;;;;;2.25;2.03;;;15.80;98.00;;;;;;5036043;28;20037;-72
2022/10/21 06:04:25;;;;;;;1.67;1.55;;;15.80;98.00;;;;;;5036053;28;20040;-72
2022/10/21 06:06:51;;;;;;;2.40;2.15;;;15.80;98.00;;;;;;5036085;28;20025;-72
2022/10/21 06:09:29;;;;;;;2.15;1.52;;;15.80;98.00;;;;;;5036055;28;20061;-72
2022/10/21 06:15:35;;;;;;;4.35;2.88;;;15.80;98.00;;;;;;5036305;28;20116;-72
2022/10/21 06:18:01;;;;;;;2.28;1.90;;;15.80;98.00;;;;;;5035786;28;20299;-72
2022/10/21 06:20:39;;;;;;;1.90;1.65;;;15.80;98.00;;;;;;5018352;28;20021;-72
2022/10/21 06:23:15;;;;;;;1.45;1.35;;;15.80;98.00;;;;;;5035582;28;20091;-72
2022/10/21 06:26:18;;;;;;;3.63;3.05;;;15.90;98.00;;;;;;5034473;28;20026;-72
2022/10/21 06:28:53;;;;;;;1.60;1.50;;;15.90;98.00;;;;;;5035178;28;20060;-72
2022/10/21 06:31:28;;;;;;;2.45;1.98;;;15.90;98.00;;;;;;5035491;28;20079;-72
2022/10/21 06:34:03;;;;;;;2.17;1.90;;;15.80;98.00;;;;;;5035910;28;20346;-72
2022/10/21 06:36:38;;;;;;;3.70;2.10;;;15.80;98.00;;;;;;5051266;28;20025;-72
2022/10/21 06:39:13;;;;;;;2.47;2.28;;;15.80;98.00;;;;;;5051261;28;20111;-72
2022/10/21 06:41:48;;;;;;;2.20;1.65;;;15.80;98.00;;;;;;5035622;28;20053;-72
2022/10/21 06:44:23;;;;;;;3.67;3.10;;;15.80;98.00;;;;;;5035560;28;20509;-72
2022/10/21 06:46:57;;;;;;;1.47;1.33;;;15.80;98.00;;;;;;5050512;28;20424;-72
2022/10/21 06:49:32;;;;;;;1.47;1.37;;;15.80;98.00;;;;;;5035437;28;20049;-72
2022/10/21 06:52:07;;;;;;;3.88;1.85;;;15.80;98.00;;;;;;5035356;28;20048;-72
2022/10/21 06:54:42;;;;;;;1.57;1.47;;;15.80;98.00;;;;;;5035447;28;20022;-72
2022/10/21 06:57:08;;;;;;;3.05;1.98;;;15.90;98.00;;;;;;5051031;28;20384;-72
2022/10/21 06:59:48;;;;;;;3.05;2.42;;;15.90;98.00;;;;;;5035494;28;20053;-72
2022/10/21 07:02:24;;;;;;;2.35;1.92;;;16.00;98.00;;;;;;5035834;28;20451;-72
2022/10/21 07:04:59;;;;;;;2.72;2.30;;;15.90;98.00;;;;;;5035198;28;20029;-72
2022/10/21 07:07:25;;;;;;;3.22;2.80;;;15.90;98.00;;;;;;5035195;28;20026;-72
2022/10/21 07:10:09;;;;;;;2.50;2.05;;;15.90;98.00;;;;;;5035582;28;20124;-72
2022/10/21 07:13:34;;;;;;;4.75;2.88;;;15.90;98.00;;;;;;5034657;28;20426;-72
2022/10/21 07:16:26;;;;;;;2.30;2.10;;;16.00;98.00;;;;;;5035163;28;20056;-72
2022/10/21 07:18:53;;;;;;;2.17;1.85;;;16.00;98.00;;;;;;5035533;28;20052;-72
2022/10/21 07:21:30;;;;;;;1.80;1.58;;;16.00;98.00;;;;;;5035156;28;20017;-72
2022/10/21 07:24:05;;;;;;;2.55;2.05;;;16.10;98.00;;;;;;5034181;28;20025;-72
2022/10/21 07:26:40;;;;;;;4.05;2.63;;;16.10;98.00;;;;;;5034259;28;20029;-72
2022/10/21 07:29:15;;;;;;;2.70;2.13;;;16.20;98.00;;;;;;5035004;28;20056;-72
2022/10/21 07:31:50;;;;;;;6.83;2.40;;;16.30;98.00;;;;;;5035045;28;20292;-72
2022/10/21 07:34:25;;;;;;;1.83;1.55;;;16.40;98.00;;;;;;5035175;28;20579;-72
2022/10/21 07:36:52;;;;;;;2.25;2.05;;;16.60;98.00;;;;;;5035065;28;20016;-72
2022/10/21 07:39:27;;;;;;;1.73;1.63;;;16.70;98.00;;;;;;5035023;28;20017;-72
2022/10/21 07:42:02;;;;;;;3.22;2.28;;;16.70;98.00;;;;;;5034281;28;20033;-72
2022/10/21 07:44:36;;;;;;;2.47;2.28;;;16.70;98.00;;;;;;5034685;28;20021;-72
2022/10/21 07:47:02;;;;;;;1.70;1.35;;;16.80;98.00;;;;;;5035022;28;20010;-72
2022/10/21 07:49:46;;;;;;;1.55;1.02;;;16.80;98.00;;;;;;5034825;28;20036;-72
2022/10/21 07:52:21;;;;;;;0.95;0.88;;;16.90;98.00;;;;;;5050353;28;20021;-72
2022/10/21 07:54:56;;;;;;;2.17;1.95;;;16.90;98.00;;;;;;5033770;28;20309;-72
2022/10/21 07:57:21;;;;;;;2.33;1.40;;;17.00;98.00;;;;;;5034868;28;20024;-72
2022/10/21 08:00:07;;;;;;;2.25;2.00;;;17.10;98.00;;;;;;5036951;28;20409;-72
2022/10/21 08:02:42;;;;;;;2.10;1.83;;;17.10;98.00;;;;;;5038338;28;20032;-72
2022/10/21 08:05:16;;;;;;;4.03;2.90;;;17.00;98.00;;;;;;5038067;28;20025;-72
2022/10/21 08:07:42;;;;;;;1.83;1.55;;;17.10;98.00;;;;;;5038235;28;20544;-72
2022/10/21 08:10:26;;;;;;;1.13;1.02;;;17.10;98.00;;;;;;5038463;28;20030;-72
2022/10/21 08:13:01;;;;;;;3.20;2.13;;;17.20;98.00;;;;;;5037647;28;20311;-72
2022/10/21 08:15:40;;;;;;;2.35;1.83;;;17.20;98.00;;;;;;5034215;28;20045;-72
2022/10/21 08:18:05;;;;;;;1.95;1.75;;;17.30;98.00;;;;;;5053139;28;20033;-72
2022/10/21 08:20:47;;;;;;;2.20;1.77;;;17.30;98.00;;;;;;5070217;28;20029;-72
2022/10/21 08:23:23;;;;;;;3.08;2.42;;;17.40;98.00;;;;;;5038054;28;20022;-72
2022/10/21 08:25:59;;;;;;;;;;;17.50;98.00;;;;;;5058461;28;20070;-72
2022/10/21 08:28:27;;;;;;;3.33;2.50;;;17.50;98.00;;;;;;5057886;28;19955;-72
2022/10/21 08:31:15;;;;;;;2.10;1.77;;;17.60;98.00;;;;;;5056932;28;20028;-72
2022/10/21 08:33:50;;;;;;;1.85;1.63;;;17.70;98.00;;;;;;5073691;28;20432;-72
2022/10/21 08:39:47;;;;;;;2.50;1.95;;;17.90;98.00;;;;;;5057934;28;20051;-72
2022/10/21 08:42:22;;;;;;;4.18;1.63;;;17.80;98.00;;;;;;5057725;28;20425;-72
2022/10/21 08:45:07;;;;;;;;;;;17.70;98.00;;;;;;5057787;28;20029;-72
2022/10/21 08:47:45;;;;;;;1.65;1.55;;;17.70;98.00;;;;;;5057531;28;19905;-72
2022/10/21 08:50:34;;;;;;;3.13;2.35;;;17.70;98.00;;;;;;5057795;28;20405;-72
2022/10/21 08:53:34;;;;;;;1.88;1.65;;;17.70;98.00;;;;;;5056342;28;20025;-72
2022/10/21 08:56:14;;;;;;;3.13;1.85;;;17.80;98.00;;;;;;5057292;28;20406;-72
2022/10/21 08:58:40;;;;;;;1.88;1.67;;;17.90;98.00;;;;;;5057302;28;20050;-72
2022/10/21 09:05:37;;;;;;;1.90;1.55;;;18.10;98.00;;;;;;4976779;28;20069;-72
2022/10/21 09:08:40;;;;;;;2.40;2.08;;;18.20;97.80;;;;;;4976429;28;20428;-72
2022/10/21 09:11:36;;;;;;;3.20;2.40;;;18.20;97.60;;;;;;4976063;28;20074;-72
2022/10/21 09:18:02;;;;;;;2.80;2.28;;;18.20;96.90;;;;;;4937997;29;19944;-72
2022/10/21 09:21:05;;;;;;;5.22;2.20;;;18.20;96.60;;;;;;4946608;28;20070;-72
2022/10/21 09:24:00;;;;;;;3.15;2.38;;;18.10;97.40;;;;;;4976099;28;20107;-72
2022/10/21 09:26:47;;;;;;;1.85;1.63;;;18.20;97.60;;;;;;4976052;28;20034;-72
2022/10/21 09:29:48;;;;;;;3.08;2.25;;;18.20;96.60;;;;;;4976015;28;20035;-72
2022/10/21 09:32:38;;;;;;;2.92;2.10;;;18.30;98.00;;;;;;4976000;28;20105;-72
2022/10/21 09:35:16;;;;;;;2.30;2.00;;;18.30;97.50;;;;;;4975968;28;20300;-72
2022/10/21 09:37:47;;;;;;;3.88;3.30;;;18.30;96.50;;;;;;4975922;28;20430;-72
2022/10/21 09:40:28;;;;;;;2.25;1.45;;;18.20;97.30;;;;;;5015647;28;20290;-72
2022/10/21 09:43:05;;;;;;;2.92;2.15;;;18.20;97.80;;;;;;5056322;28;20025;-73
2022/10/21 09:45:43;;;;;;;3.25;2.75;;;18.10;96.00;;;;;;5055158;28;20037;-72
2022/10/21 09:48:23;;;;;;;1.70;1.58;;;17.90;97.20;;;;;;5056225;28;20108;-72
2022/10/21 09:51:13;;;;;;;1.85;1.25;;;17.80;97.00;;;;;;5056688;28;20025;-72
2022/10/21 09:54:16;;;;;;;2.28;1.85;;;17.70;96.80;;;;;;5056204;28;20036;-72
2022/10/21 10:00:14;;;;;;;2.10;1.70;;;17.70;98.00;;;;;;5056067;28;20031;-72
2022/10/21 10:02:48;;;;;;;2.95;1.98;;;17.70;98.00;;;;;;5056144;28;20071;-72
2022/10/21 10:05:48;;;;;;;2.47;2.28;;;17.80;97.80;;;;;;5055864;28;20032;-72
2022/10/21 10:08:28;;;;;;;2.70;1.92;;;17.80;97.50;;;;;;5055785;28;20045;-72
2022/10/21 10:11:12;;;;;;;2.92;2.25;;;17.70;97.00;;;;;;5055924;28;20313;-72
2022/10/21 10:14:37;;;;;;;3.25;2.70;;;17.70;96.10;;;;;;5051257;28;20041;-72
2022/10/21 10:17:50;;;;;;;1.85;1.60;;;17.80;96.90;;;;;;5036091;28;20032;-72
2022/10/21 10:20:27;;;;;;;2.17;2.00;;;17.90;95.40;;;;;;5035742;28;20037;-72
2022/10/21 10:23:08;;;;;;;1.77;1.63;;;17.80;96.20;;;;;;5017470;28;20364;-72
2022/10/21 10:25:49;;;;;;;2.20;2.00;;;17.80;96.30;;;;;;5035625;28;20020;-72
2022/10/21 10:28:22;;;;;;;1.55;1.38;;;17.80;95.60;;;;;;5035657;28;20045;-72
2022/10/21 10:30:57;;;;;;;2.42;1.88;;;17.90;96.20;;;;;;5035674;28;20301;-72
2022/10/21 10:33:34;;;;;;;1.50;1.20;;;17.90;96.70;;;;;;5035588;28;20402;-72
2022/10/21 10:39:34;;;;;;;1.67;1.52;;;17.90;94.70;;;;;;5035900;28;20079;-72
2022/10/21 10:42:30;;;;;;;1.92;1.08;;;17.80;94.60;;;;;;5035568;28;20045;-72
2022/10/21 10:48:24;;;;;;;2.75;1.67;;;17.70;95.70;;;;;;5035686;28;20235;-72
2022/10/21 10:50:58;;;;;;;1.48;1.02;;;17.60;98.00;;;;;;5035405;28;20128;-72
2022/10/21 10:53:37;;;;;;;3.63;1.90;;;17.60;97.20;;;;;;5035329;28;20433;-72
2022/10/21 10:57:00;;;;;;;3.38;2.95;;;17.50;97.10;;;;;;5050840;28;20029;-72
2022/10/21 10:59:50;;;;;;;1.63;1.25;;;17.50;97.50;;;;;;5035278;28;20033;-72
2022/10/21 11:02:49;;;;;;;4.82;3.38;;;17.50;97.40;;;;;;5035224;28;20029;-72
2022/10/21 11:05:45;;;;;;;2.55;1.50;;;17.50;97.70;;;;;;5035136;28;20030;-72
2022/10/21 11:08:24;;;;;;;1.13;0.95;;;17.50;98.00;;;;;;5035358;28;20021;-72
2022/10/21 11:11:16;;;;;;;3.88;2.38;;;17.50;98.00;;;;;;5035356;28;20030;-72
2022/10/21 11:13:52;;;;;;;1.30;1.10;;;17.50;98.00;;;;;;5017603;28;20057;-72
2022/10/21 11:20:17;;;;;;;2.20;1.58;;;17.40;96.60;;;;;;5035766;28;20076;-72
2022/10/21 11:23:21;;;;;;;1.80;1.00;;;17.40;97.70;;;;;;5035120;28;20048;-72
2022/10/21 11:29:24;;;;;;;2.53;1.50;;;17.70;95.40;;;;;;5035432;28;20424;-72
2022/10/21 11:32:27;;;;;;;0.82;0.82;;;17.70;94.30;;;;;;5035056;28;20033;-72
2022/10/21 11:35:27;;;;;;;1.33;0.88;;;17.70;94.30;;;;;;5038840;28;20014;-72
2022/10/21 11:38:00;;;;;;;1.95;1.45;;;17.80;91.00;;;;;;5038806;28;20398;-72
2022/10/21 11:40:59;;;;;;;1.63;1.17;;;17.90;91.40;;;;;;5038850;28;20009;-72
2022/10/21 11:44:02;;;;;;;1.48;0.90;;;18.00;94.40;;;;;;5038717;28;20057;-72
2022/10/21 11:47:10;;;;;;;1.95;1.40;;;18.00;93.90;;;;;;5038615;28;20097;-72
2022/10/21 11:50:09;;;;;;;1.15;0.95;;;17.90;94.00;;;;;;5036619;28;20033;-72
2022/10/21 11:53:13;;;;;;;2.88;1.60;;;17.90;94.70;;;;;;5019883;28;20025;-72
2022/10/21 11:59:38;;;;;;;1.17;1.05;;;17.80;95.90;;;;;;5037639;28;20036;-72
2022/10/21 12:02:32;;;;;;;5.03;1.80;;;17.80;96.60;;;;;;5037282;28;20026;-72
2022/10/21 12:08:22;;;;;;;1.80;1.27;;;17.70;96.20;;;;;;5038280;28;20497;-72
2022/10/21 12:11:09;;;;;;;1.58;1.23;;;17.60;95.80;;;;;;5038197;28;20025;-72
2022/10/21 12:13:53;;;;;;;2.15;1.95;;;17.50;96.10;;;;;;5036776;28;20104;-72
2022/10/21 12:19:52;;;;;;;1.65;1.50;;;17.40;94.70;;;;;;5038558;28;20041;-72
2022/10/21 12:22:38;;;;;;;1.95;1.42;;;17.40;96.40;;;;;;5037852;28;20040;-72
2022/10/21 12:25:26;;;;;;;1.67;1.55;;;17.40;95.60;;;;;;5020454;28;20021;-72
2022/10/21 12:28:03;;;;;;;10.50;2.17;;;17.40;98.00;;;;;;5037976;28;20018;-72
2022/10/21 12:30:57;;;;;;;1.20;1.00;;;17.50;96.00;;;;;;5037903;28;20306;-72
2022/10/21 12:36:54;;;;;;;1.63;1.30;;;17.50;96.30;;;;;;5037895;28;20032;-72
2022/10/21 12:40:26;;;;;;;2.05;1.80;;;17.60;97.50;;;;;;5037576;28;20024;-72
2022/10/21 12:43:27;;;;;;;1.02;0.95;;;17.60;95.60;;;;;;4996367;28;20026;-72
2022/10/21 12:49:32;;;;;;;1.05;0.90;;;17.50;97.30;;;;;;4996641;28;20105;-72
2022/10/21 12:52:22;;;;;;;3.00;1.45;;;17.50;96.00;;;;;;4996001;28;20292;-72
2022/10/21 12:58:33;;;;;;;3.78;2.85;;;17.60;95.80;;;;;;4996596;28;20021;-72
2022/10/21 13:01:38;;;;;;;1.10;0.90;;;17.60;97.40;;;;;;4977620;28;20022;-72
2022/10/21 13:04:53;;;;;;;1.75;1.63;;;17.50;97.70;;;;;;4979611;28;20023;-72
2022/10/21 13:07:25;;;;;;;2.25;0.90;;;17.50;98.00;;;;;;4991160;28;20151;-73
2022/10/21 13:10:07;;;;;;;2.25;1.77;;;17.50;98.00;;;;;;4995978;28;20076;-72
2022/10/21 13:13:33;;;;;;;2.08;1.50;;;17.60;98.00;;;;;;5000212;28;20042;-72
2022/10/21 13:19:34;;;;;;;2.20;0.93;;;17.60;97.80;;;;;;5037006;28;20044;-72
2022/10/21 13:22:14;;;;;;;4.35;1.73;;;17.40;96.20;;;;;;5019010;28;20029;-72
2022/10/21 13:28:13;;;;;;;1.70;1.60;;;17.40;97.20;;;;;;5036991;28;20056;-73
2022/10/21 13:31:19;;;;;;;2.33;1.83;;;17.30;96.50;;;;;;5036850;28;20021;-72
2022/10/21 13:33:55;;;;;;;1.42;1.17;;;17.30;95.90;;;;;;5036422;28;20041;-72
2022/10/21 13:39:43;;;;;;;1.60;1.30;;;17.30;95.60;;;;;;5036801;28;20310;-72
2022/10/21 13:42:19;;;;;;;2.67;2.13;;;17.30;96.50;;;;;;5036500;28;20021;-72
2022/10/21 13:45:03;;;;;;;3.83;1.88;;;17.30;96.90;;;;;;5018811;28;20028;-72
2022/10/21 13:47:34;;;;;;;2.30;1.60;;;17.20;96.20;;;;;;5036645;28;20291;-72
2022/10/21 13:50:37;;;;;;;1.77;1.63;;;17.00;97.00;;;;;;5036336;28;20025;-72
2022/10/21 13:53:35;;;;;;;1.92;1.58;;;17.00;97.70;;;;;;5035969;28;20021;-72
2022/10/21 13:59:33;;;;;;;1.33;1.23;;;16.90;98.00;;;;;;5036406;28;20305;-72
2022/10/21 14:02:38;;;;;;;2.00;1.83;;;16.90;98.00;;;;;;5036173;28;20013;-72
2022/10/21 14:05:46;;;;;;;1.25;1.15;;;16.80;98.00;;;;;;5036025;28;20032;-72
2022/10/21 14:08:37;;;;;;;1.42;1.30;;;16.80;98.00;;;;;;5035783;28;20033;-72
2022/10/21 14:11:26;;;;;;;1.85;1.67;;;16.80;98.00;;;;;;5036298;28;20083;-72
2022/10/21 14:14:16;;;;;;;2.13;1.42;;;16.70;98.00;;;;;;5018302;28;20041;-72
2022/10/21 14:16:55;;;;;;;1.77;1.17;;;16.70;98.00;;;;;;5035810;28;20037;-72
2022/10/21 14:19:34;;;;;;;1.42;0.90;;;16.60;98.00;;;;;;5018413;28;20033;-72
2022/10/21 14:22:30;;;;;;;1.27;0.95;;;16.40;98.00;;;;;;5034938;28;20043;-72
2022/10/21 14:28:19;;;;;;;1.00;0.77;;;16.20;98.00;;;;;;5036649;28;20071;-72
2022/10/21 14:31:00;;;;;;;0.63;0.50;;;16.20;98.00;;;;;;5018143;28;20116;-72
2022/10/21 14:33:38;;;;;;;1.08;0.55;;;16.20;98.00;;;;;;5035515;28;20036;-72
2022/10/21 14:36:23;;;;;;;0.35;0.28;;;16.10;98.00;;;;;;5035519;28;20024;-72
2022/10/21 14:39:05;;;;;;;0.88;0.70;;;16.00;98.00;;;;;;5035616;28;20049;-72
2022/10/21 14:41:44;;;;;;;0.30;0.30;;;16.00;98.00;;;;;;5050654;28;20305;-72
2022/10/21 14:44:25;;;;;;;0.55;0.45;;;16.10;98.00;;;;;;5034561;28;20029;-72
2022/10/21 14:46:52;;;;;;;1.00;0.77;;;16.10;98.00;;;;;;5034571;28;20017;-72
2022/10/21 14:49:58;;;;;;;0.75;0.40;;;16.00;98.00;;;;;;5035514;28;20423;-72
2022/10/21 14:52:41;;;;;;;0.68;0.55;;;15.90;98.00;;;;;;5035305;28;20096;-72
2022/10/21 14:55:31;;;;;;;0.55;0.55;;;15.80;98.00;;;;;;5035316;28;20360;-72
2022/10/21 14:58:03;;;;;;;0.93;0.88;;;15.80;98.00;;;;;;5035465;28;20029;-72
2022/10/21 15:00:41;;;;;;;5.63;0.60;;;15.80;98.00;;;;;;5035520;28;20044;-72
2022/10/21 15:03:46;;;;;;;0.77;0.68;;;15.90;98.00;;;;;;5034214;28;20135;-72
2022/10/21 15:09:34;;;;;;;0.57;0.40;;;15.90;98.00;;;;;;5039428;28;20072;-72
2022/10/21 15:12:25;;;;;;;0.52;0.38;;;15.90;98.00;;;;;;5038845;28;20033;-72
2022/10/21 15:15:04;;;;;;;10.38;1.17;;;15.90;98.00;;;;;;5039073;28;20120;-72
2022/10/21 15:17:29;;;;;;;0.38;0.30;;;15.80;98.00;;;;;;5039221;28;20029;-72
2022/10/21 15:20:14;;;;;;;0.52;0.30;;;15.70;98.00;;;;;;5039285;28;20329;-72
2022/10/21 15:22:49;;;;;;;0.68;0.45;;;15.60;98.00;;;;;;5054733;28;20029;-72
2022/10/21 15:25:24;;;;;;;0.70;0.68;;;15.60;98.00;;;;;;5021577;28;20025;-72
2022/10/21 15:27:53;;;;;;;0.60;0.57;;;15.60;98.00;;;;;;5039153;28;20398;-72
2022/10/21 15:30:33;;;;;;;0.70;0.65;;;15.60;98.00;;;;;;5039015;28;20017;-72
2022/10/21 15:33:11;;;;;;;0.73;0.73;;;15.60;98.00;;;;;;5038862;28;20098;-72
2022/10/21 15:36:07;;;;;;;0.95;0.85;;;15.60;98.00;;;;;;5021327;28;20033;-72
2022/10/21 15:38:45;;;;;;;0.77;0.65;;;15.60;98.00;;;;;;5038806;28;20021;-72
2022/10/21 15:41:35;;;;;;;1.58;1.17;;;15.70;98.00;;;;;;5038794;28;20025;-72
2022/10/21 15:44:17;;;;;;;0.65;0.65;;;15.70;98.00;;;;;;5038734;28;20310;-72
2022/10/21 15:50:16;;;;;;;0.73;0.60;;;15.70;98.00;;;;;;5038808;28;20500;-72
2022/10/21 15:52:51;;;;;;;1.02;0.85;;;15.60;98.00;;;;;;5038499;28;20310;-72
2022/10/21 15:55:26;;;;;;;0.25;0.22;;;15.60;98.00;;;;;;5038632;28;20038;-72
2022/10/21 15:57:52;;;;;;;0.60;0.55;;;15.60;98.00;;;;;;5037554;28;20037;-72
2022/10/21 16:00:32;;;;;;;0.50;0.38;;;15.50;98.00;;;;;;5037396;28;20022;-72
2022/10/21 16:03:58;;;;;;;0.40;0.40;;;15.50;98.00;;;;;;5038454;28;20409;-72
2022/10/21 16:06:50;;;;;;;0.13;0.10;;;15.50;98.00;;;;;;5038127;28;20029;-72
2022/10/21 16:09:34;;;;;;;1.02;0.82;;;15.50;98.00;;;;;;5038319;28;20104;-72